Detall de PIREP

Printer-friendly versionPDF version

[2009/11/26 21:21:00]
Flight IATA:CT2315
Pilot Number:026
Company ICAO:CAT
Aircraft Type:DC85/A
PAX:136
Departing Airport: LIPZ
Destination Airport: LIEA
Alternate Airport:LIEO
Online: VATSIM
Route:CHI UM167 FRZ UL12 ELB UL125 TALIN UL5 MINKA
Flight Level:FL310
No Slew and time accel
No pause
Crash detect
Detect pilot in Cockpit between each 30 and 45 minutes
21:21 Zero fuel Weight: 188267 Lbs, Fuel Weight: 24014 Lbs
21:21 VATSIM:LIPZ 262050Z 36004KT 2500 BR BKN012 BKN060 10/05 Q1018
21:21 VATSIM:LIEA 262050Z 21007KT 9999 SCT013 16/14 Q1019
21:21 VOICE CATALONIAN / IATA CT2315
21:33 Parking Brakes off
21:41 Take-off
21:41 Take off Weight: 211037 Lbs
21:41 Wind: 036º @ 001 Knots Heading: 042º
21:41 POS N45º 30´ 30´´ E012º 21´ 21´´
21:41 Flaps:3 at 174 Knots
21:41 Gear Up: 177 Knots
21:42 Flaps:2 at 171 Knots
21:43 Flaps:1 at 170 Knots
21:44 Flaps:0 at 195 Knots

21:56 Wind:264º@008 Knots Heading: 220º Ground Speed: 432 Knots Altitude 29658 ft
21:57 TOC
21:57 Fuel Weight: 17238 Lb
22:11 Wind:153º@016 Knots Heading: 203º Ground Speed: 462 Knots Altitude 31154 ft
22:18 TOD
22:18 Fuel Weight: 12425 Lb
22:26 Wind:210º@016 Knots Heading: 205º Ground Speed: 398 Knots Altitude 17752 ft
22:41 Wind:220º@004 Knots Heading: 163º Ground Speed: 162 Knots Altitude 2368 ft
22:41 Flaps:1 at 172 Knots
22:41 Flaps:2 at 172 Knots
22:42 Flaps:3 at 178 Knots
22:43 Flaps:4 at 178 Knots
22:43 Flaps:5 at 180 Knots
22:43 Flaps:3 at 171 Knots
22:43 Flaps:2 at 188 Knots
22:43 Gear Down: 212 Knots
22:43 Flaps:1 at 222 Knots
22:43 Gear Up: 222 Knots
22:43 Flaps:0 at 233 Knots
22:53 Flaps:1 at 212 Knots
22:53 Gear Down: 216 Knots
22:53 Flaps:2 at 219 Knots
22:54 Flaps:3 at 185 Knots
22:54 Flaps:4 at 163 Knots
22:55 Flaps:5 at 152 Knots
22:5
5 TouchDown:Rate -321 ft/min Speed: 136 Knots
22:55 VATSIM:LIEA 262220Z 22004KT 9999 BKN013 15/14 Q1019
22:55 Land
22:55 Wind:230º@005 Knots
22:55 Heading: 203º
22:55 Flight Duration: 01:14
22:55 Landing Weight: 196516 Lbs
22:55 POS N40º 37´ 52´´ E008º 17´ 25´´
23:00 Parking brakes on
23:00 Block to Block Duration: 01:27
23:00 Final Fuel: 7705 Lbls
23:00 Spent Fuel: 16309 Lbls
23:00 Flight Length: 432 NM
23:00 TOD Land Length: 176 NM

Exportar CSV

Powered by Drupal - Modified by Danger4k